createdAt,value
2019-01-24T00:01:42.978Z,86.80
2019-01-24T00:04:16.756Z,86.80
2019-01-24T00:06:44.359Z,86.80
2019-01-24T00:09:14.178Z,86.30
2019-01-24T00:11:44.244Z,86.60
2019-01-24T00:14:15.014Z,86.50
2019-01-24T00:16:45.079Z,86.30
2019-01-24T00:19:14.914Z,86.10
2019-01-24T00:21:44.998Z,86.40
2019-01-24T00:24:14.867Z,86.40
2019-01-24T00:26:44.685Z,86.40
2019-01-24T00:29:14.297Z,86.10
2019-01-24T00:31:45.054Z,86.50
2019-01-24T00:34:14.837Z,86.60
2019-01-24T00:36:44.631Z,85.80
2019-01-24T00:39:14.253Z,86.80
2019-01-24T00:41:44.058Z,86.70
2019-01-24T00:44:13.838Z,86.60
2019-01-24T00:46:43.506Z,86.60
2019-01-24T00:49:13.400Z,87.10
2019-01-24T00:51:43.099Z,86.80
2019-01-24T00:54:12.781Z,86.70
2019-01-24T00:56:42.510Z,86.40
2019-01-24T00:59:12.235Z,86.80
2019-01-24T01:01:43.004Z,86.70
2019-01-24T01:04:12.745Z,86.70
2019-01-24T01:06:42.819Z,86.60
2019-01-24T01:09:12.905Z,86.50
2019-01-24T01:11:42.882Z,86.50
2019-01-24T01:14:12.927Z,86.50
2019-01-24T01:16:42.722Z,86.40
2019-01-24T01:19:13.011Z,86.40
2019-01-24T01:21:42.629Z,86.00
2019-01-24T01:24:14.181Z,86.30
2019-01-24T01:26:55.238Z,86.40
2019-01-24T01:29:25.735Z,85.70
2019-01-24T01:31:55.680Z,86.20
2019-01-24T01:34:25.509Z,86.40
2019-01-24T01:36:55.313Z,86.40
2019-01-24T01:39:25.117Z,86.30
2019-01-24T01:41:54.795Z,86.60
2019-01-24T01:44:24.470Z,86.50
2019-01-24T01:46:54.158Z,86.40
2019-01-24T01:49:23.908Z,86.40
2019-01-24T01:51:53.834Z,86.40
2019-01-24T01:54:23.543Z,86.10
2019-01-24T01:56:53.358Z,86.40
2019-01-24T01:59:23.219Z,86.10
2019-01-24T02:01:52.871Z,86.10
2019-01-24T02:04:22.614Z,86.40
2019-01-24T02:06:53.398Z,86.00
2019-01-24T02:09:23.754Z,86.10
2019-01-24T02:11:53.775Z,86.30
2019-01-24T02:14:23.576Z,86.00
2019-01-24T02:16:53.349Z,86.00
2019-01-24T02:19:23.011Z,86.60
2019-01-24T02:21:52.643Z,86.50
2019-01-24T02:24:22.777Z,86.40
2019-01-24T02:26:52.360Z,86.40
2019-01-24T02:29:22.135Z,86.10
2019-01-24T02:31:51.891Z,86.60
2019-01-24T02:34:21.549Z,86.80
2019-01-24T02:36:51.324Z,86.60
2019-01-24T02:39:21.019Z,86.30
2019-01-24T02:41:50.689Z,86.80
2019-01-24T02:44:20.552Z,86.70
2019-01-24T02:46:50.171Z,86.40
2019-01-24T02:49:19.794Z,85.80
2019-01-24T02:51:49.464Z,86.10
2019-01-24T02:54:19.202Z,86.00
2019-01-24T02:56:48.903Z,86.40
2019-01-24T02:59:18.621Z,86.60
2019-01-24T03:01:48.397Z,86.40
2019-01-24T03:04:18.300Z,86.50
2019-01-24T03:06:48.095Z,86.90
2019-01-24T03:09:17.767Z,86.80
2019-01-24T03:11:47.705Z,86.60
2019-01-24T03:14:17.281Z,86.70
2019-01-24T03:16:46.956Z,86.60
2019-01-24T03:19:16.524Z,85.90
2019-01-24T03:21:46.494Z,86.50
2019-01-24T03:24:16.109Z,86.50
2019-01-24T03:26:45.676Z,86.40
2019-01-24T03:29:15.337Z,86.50
2019-01-24T03:31:45.078Z,86.30
2019-01-24T03:34:14.780Z,86.40
2019-01-24T03:36:44.454Z,86.30
2019-01-24T03:39:14.280Z,86.70
2019-01-24T03:41:44.341Z,86.70
2019-01-24T03:44:14.039Z,86.30
2019-01-24T03:46:43.848Z,85.90
2019-01-24T03:49:14.415Z,86.50
2019-01-24T03:51:44.305Z,86.30
2019-01-24T03:54:13.991Z,86.30
2019-01-24T03:56:44.161Z,86.40
2019-01-24T03:59:14.085Z,86.70
2019-01-24T04:01:43.812Z,86.40
2019-01-24T04:04:13.718Z,86.20
2019-01-24T04:06:43.386Z,86.30
2019-01-24T04:09:13.206Z,86.50
2019-01-24T04:11:42.978Z,86.60
2019-01-24T04:14:13.216Z,86.20
2019-01-24T04:16:42.933Z,86.40
2019-01-24T04:19:12.763Z,86.70
2019-01-24T04:21:42.475Z,87.20
2019-01-24T04:24:12.084Z,86.90
2019-01-24T04:26:41.880Z,86.90
2019-01-24T04:29:11.567Z,86.40
2019-01-24T04:31:41.451Z,86.10
2019-01-24T04:34:11.098Z,86.20
2019-01-24T04:36:40.836Z,87.20
2019-01-24T04:39:11.778Z,86.70
2019-01-24T04:41:41.385Z,87.00
2019-01-24T04:44:11.098Z,86.50
2019-01-24T04:46:40.707Z,87.30
2019-01-24T04:49:10.887Z,86.40
2019-01-24T04:51:40.671Z,86.20
2019-01-24T04:54:11.433Z,86.80
2019-01-24T04:56:41.323Z,86.70
2019-01-24T04:59:11.461Z,86.40
2019-01-24T05:01:41.384Z,86.50
2019-01-24T05:04:11.268Z,86.50
2019-01-24T05:06:41.027Z,86.10
2019-01-24T05:09:10.883Z,86.80
2019-01-24T05:11:40.799Z,87.20
2019-01-24T05:14:10.766Z,86.50
2019-01-24T05:16:40.551Z,86.50
2019-01-24T05:19:11.178Z,86.20
2019-01-24T05:21:40.867Z,87.70
2019-01-24T05:24:10.685Z,86.60
2019-01-24T05:26:40.310Z,87.40
2019-01-24T05:29:10.017Z,87.10
2019-01-24T05:31:40.190Z,87.00
2019-01-24T05:34:09.947Z,86.70
2019-01-24T05:36:39.776Z,86.90
2019-01-24T05:39:11.232Z,87.20
2019-01-24T05:41:40.898Z,86.90
2019-01-24T05:44:10.597Z,86.30
2019-01-24T05:46:40.285Z,86.50
2019-01-24T05:49:10.953Z,85.60
2019-01-24T05:51:40.612Z,85.90
2019-01-24T05:54:10.335Z,85.90
2019-01-24T05:56:41.207Z,85.70
2019-01-24T05:59:10.954Z,86.30
2019-01-24T06:01:41.132Z,86.90
2019-01-24T06:04:11.100Z,86.10
2019-01-24T06:06:40.745Z,87.50
2019-01-24T06:09:10.675Z,87.70
2019-01-24T06:11:40.320Z,87.60
2019-01-24T06:14:09.970Z,86.30
2019-01-24T06:16:39.746Z,85.80
2019-01-24T06:19:09.810Z,86.00
2019-01-24T06:21:39.488Z,85.70
2019-01-24T06:24:09.494Z,86.00
2019-01-24T06:26:41.082Z,86.00
2019-01-24T06:29:11.071Z,86.40
2019-01-24T06:31:40.860Z,86.60
2019-01-24T06:34:25.247Z,86.70
2019-01-24T06:36:55.058Z,86.90
2019-01-24T06:39:24.744Z,86.90
2019-01-24T06:41:54.520Z,87.00
2019-01-24T06:44:24.395Z,86.80
2019-01-24T06:46:54.098Z,87.60
2019-01-24T06:49:23.734Z,88.50
2019-01-24T06:51:53.473Z,87.70
2019-01-24T06:54:23.166Z,87.80
2019-01-24T06:56:52.834Z,87.50
2019-01-24T06:59:22.456Z,87.40
2019-01-24T07:01:52.367Z,87.40
2019-01-24T07:04:22.391Z,87.10
2019-01-24T07:06:52.162Z,86.90
2019-01-24T07:09:21.970Z,87.00
2019-01-24T07:11:51.608Z,87.10
2019-01-24T07:14:21.253Z,86.90
2019-01-24T07:16:50.926Z,87.10
2019-01-24T07:19:21.011Z,87.30
2019-01-24T07:21:51.017Z,87.30
2019-01-24T07:24:21.464Z,87.00
2019-01-24T07:26:52.570Z,87.00
2019-01-24T07:29:22.220Z,87.10
2019-01-24T07:31:52.378Z,87.40
2019-01-24T07:34:22.571Z,86.90
2019-01-24T07:36:52.666Z,87.50
2019-01-24T07:39:22.623Z,87.30
2019-01-24T07:41:52.566Z,86.90
2019-01-24T07:44:22.361Z,87.00
2019-01-24T07:46:52.072Z,86.70
2019-01-24T07:49:21.775Z,87.00
2019-01-24T07:51:51.778Z,86.60
2019-01-24T07:54:23.108Z,86.70
2019-01-24T07:56:53.141Z,87.00
2019-01-24T07:59:23.111Z,86.70
2019-01-24T08:01:53.294Z,86.80
2019-01-24T08:04:23.641Z,86.80
2019-01-24T08:06:53.358Z,86.70
2019-01-24T08:09:23.187Z,86.60
2019-01-24T08:11:54.451Z,86.80
2019-01-24T08:14:24.208Z,87.00
2019-01-24T08:16:54.283Z,86.80
2019-01-24T08:19:24.301Z,86.60
2019-01-24T08:21:54.052Z,86.40
2019-01-24T08:24:24.467Z,86.20
2019-01-24T08:26:54.611Z,86.40
2019-01-24T08:29:25.117Z,86.60
2019-01-24T08:31:55.280Z,86.30
2019-01-24T08:34:25.652Z,86.30
2019-01-24T08:36:55.331Z,86.40
2019-01-24T08:39:25.132Z,86.20
2019-01-24T08:41:55.314Z,86.20
2019-01-24T08:44:25.030Z,86.10
2019-01-24T08:46:54.985Z,86.40
2019-01-24T08:49:24.853Z,86.50
2019-01-24T08:51:54.525Z,86.30
2019-01-24T08:54:24.331Z,86.20
2019-01-24T08:56:54.404Z,86.20
2019-01-24T08:59:29.430Z,85.90
2019-01-24T09:01:55.860Z,86.30
2019-01-24T09:04:46.031Z,85.60
2019-01-24T09:07:16.458Z,85.80
2019-01-24T09:09:46.057Z,86.10
2019-01-24T09:12:16.056Z,86.20
2019-01-24T09:14:46.066Z,86.10
2019-01-24T09:17:15.908Z,85.90
2019-01-24T09:19:45.558Z,85.80
2019-01-24T09:22:15.236Z,85.90
2019-01-24T09:24:44.869Z,85.50
2019-01-24T09:27:16.082Z,85.30
2019-01-24T09:29:45.735Z,85.10
2019-01-24T09:32:15.944Z,85.00
2019-01-24T09:34:45.933Z,85.10
2019-01-24T09:37:16.068Z,84.90
2019-01-24T09:39:45.737Z,85.20
2019-01-24T09:42:15.763Z,84.80
2019-01-24T09:44:46.004Z,84.60
2019-01-24T09:47:16.170Z,84.80
2019-01-24T09:49:45.801Z,85.20
2019-01-24T09:52:16.059Z,84.70
2019-01-24T09:54:46.400Z,84.70
2019-01-24T09:57:16.122Z,84.70
2019-01-24T09:59:46.177Z,84.80
2019-01-24T10:02:16.106Z,84.60
2019-01-24T10:04:45.739Z,84.80
2019-01-24T10:07:15.581Z,84.60
2019-01-24T10:09:45.328Z,84.50
2019-01-24T10:12:15.429Z,84.40
2019-01-24T10:14:45.119Z,84.40
2019-01-24T10:17:14.726Z,84.20
2019-01-24T10:19:44.506Z,84.10
2019-01-24T10:22:14.475Z,84.10
2019-01-24T10:24:44.302Z,83.70
2019-01-24T10:27:14.115Z,83.80
2019-01-24T10:29:43.977Z,84.00
2019-01-24T10:32:13.618Z,83.80
2019-01-24T10:34:44.023Z,83.50
2019-01-24T10:37:13.890Z,83.70
2019-01-24T10:39:43.632Z,83.70
2019-01-24T10:42:13.787Z,83.70
2019-01-24T10:44:43.487Z,83.80
2019-01-24T10:47:13.255Z,83.70
2019-01-24T10:49:43.241Z,83.80
2019-01-24T10:52:13.413Z,83.60
2019-01-24T10:54:43.600Z,83.50
2019-01-24T10:57:15.451Z,83.40
2019-01-24T10:59:45.167Z,83.40
2019-01-24T11:02:15.151Z,83.50
2019-01-24T11:04:44.867Z,83.50
2019-01-24T11:07:14.514Z,83.60
2019-01-24T11:09:44.215Z,83.40
2019-01-24T11:12:14.368Z,83.20
2019-01-24T11:14:44.010Z,83.30
2019-01-24T11:17:13.831Z,82.90
2019-01-24T11:19:43.411Z,82.90
2019-01-24T11:22:13.066Z,82.90
2019-01-24T11:24:42.822Z,82.90
2019-01-24T11:27:12.529Z,83.00
2019-01-24T11:29:44.030Z,83.10
2019-01-24T11:32:15.431Z,84.20
2019-01-24T11:34:45.179Z,84.20
2019-01-24T11:37:14.866Z,84.00
2019-01-24T11:39:45.115Z,84.80
2019-01-24T11:42:14.940Z,84.60
2019-01-24T11:44:44.814Z,84.60
2019-01-24T11:47:14.472Z,83.60
2019-01-24T11:49:45.008Z,84.80
2019-01-24T11:52:14.861Z,83.40
2019-01-24T11:54:44.615Z,83.10
2019-01-24T11:57:14.354Z,82.90
2019-01-24T11:59:44.047Z,83.30
2019-01-24T12:02:13.723Z,82.90
2019-01-24T12:04:43.373Z,83.30
2019-01-24T12:07:13.511Z,82.90
2019-01-24T12:09:43.387Z,82.20
2019-01-24T12:12:13.155Z,81.90
2019-01-24T12:14:43.065Z,82.00
2019-01-24T12:17:12.835Z,82.00
2019-01-24T12:19:42.988Z,82.20
2019-01-24T12:22:12.690Z,82.00
2019-01-24T12:24:42.717Z,81.70
2019-01-24T12:27:12.973Z,83.80
2019-01-24T12:29:42.657Z,83.20
2019-01-24T12:32:12.379Z,82.40
2019-01-24T12:34:42.015Z,82.20
2019-01-24T12:37:11.736Z,82.60
2019-01-24T12:39:41.759Z,82.30
2019-01-24T12:42:11.498Z,82.20
2019-01-24T12:44:41.313Z,82.00
2019-01-24T12:47:11.151Z,82.10
2019-01-24T12:49:40.834Z,81.90
2019-01-24T12:52:10.537Z,81.90
2019-01-24T12:54:40.302Z,81.70
2019-01-24T12:57:10.026Z,81.70
2019-01-24T12:59:39.807Z,81.80
2019-01-24T13:02:09.638Z,81.70
2019-01-24T13:04:39.449Z,84.00
2019-01-24T13:07:09.330Z,82.60
2019-01-24T13:09:39.132Z,82.30
2019-01-24T13:12:08.907Z,82.10
2019-01-24T13:14:38.656Z,82.10
2019-01-24T13:17:08.251Z,81.70
2019-01-24T13:19:37.998Z,82.10
2019-01-24T13:22:07.929Z,82.40
2019-01-24T13:24:37.656Z,82.50
2019-01-24T13:27:07.336Z,82.50
2019-01-24T13:29:37.272Z,82.30
2019-01-24T13:32:06.889Z,82.20
2019-01-24T13:34:37.134Z,82.20
2019-01-24T13:37:07.160Z,82.40
2019-01-24T13:39:37.060Z,82.50
2019-01-24T13:42:08.265Z,82.30
2019-01-24T13:44:38.018Z,82.50
2019-01-24T13:47:07.740Z,82.70
2019-01-24T13:49:37.525Z,82.60
2019-01-24T13:52:07.514Z,82.70
2019-01-24T13:54:37.407Z,83.50
2019-01-24T13:57:07.305Z,83.50
2019-01-24T13:59:37.173Z,83.10
2019-01-24T14:02:06.891Z,82.90
2019-01-24T14:04:46.008Z,82.90
2019-01-24T14:07:15.810Z,82.80
2019-01-24T14:09:45.497Z,82.50
2019-01-24T14:12:15.220Z,82.60
2019-01-24T14:14:44.826Z,82.60
2019-01-24T14:17:14.575Z,82.50
2019-01-24T14:19:44.479Z,82.50
2019-01-24T14:22:14.261Z,82.70
2019-01-24T14:24:43.862Z,82.80
2019-01-24T14:27:15.311Z,82.60
2019-01-24T14:29:45.246Z,81.50
2019-01-24T14:32:15.399Z,82.70
2019-01-24T14:34:45.661Z,83.20
2019-01-24T14:37:15.822Z,83.20
2019-01-24T14:39:45.419Z,83.20
2019-01-24T14:42:15.188Z,83.10
2019-01-24T14:44:45.016Z,83.10
2019-01-24T14:47:14.765Z,82.70
2019-01-24T14:49:44.493Z,82.90
2019-01-24T14:52:14.329Z,82.80
2019-01-24T14:54:44.055Z,82.90
2019-01-24T14:57:14.329Z,81.70
2019-01-24T14:59:44.029Z,83.00
2019-01-24T15:02:14.534Z,83.40
2019-01-24T15:04:44.523Z,83.50
2019-01-24T15:07:14.593Z,83.20
2019-01-24T15:09:44.585Z,82.90
2019-01-24T15:12:14.322Z,82.90
2019-01-24T15:14:44.463Z,83.30
2019-01-24T15:17:14.180Z,83.10
2019-01-24T15:19:44.020Z,83.50
2019-01-24T15:22:14.520Z,83.70
2019-01-24T15:24:44.909Z,83.50
2019-01-24T15:27:14.871Z,83.30
2019-01-24T15:29:44.982Z,83.30
2019-01-24T15:32:14.976Z,83.80
2019-01-24T15:34:44.929Z,83.20
2019-01-24T15:37:14.883Z,83.60
2019-01-24T15:39:45.071Z,83.70
2019-01-24T15:42:15.249Z,83.50
2019-01-24T15:44:44.885Z,83.50
2019-01-24T15:47:14.569Z,83.70
2019-01-24T15:49:44.252Z,83.60
2019-01-24T15:52:14.191Z,83.80
2019-01-24T15:54:44.763Z,83.40
2019-01-24T15:57:19.167Z,83.70
2019-01-24T15:59:49.020Z,83.80
2019-01-24T16:02:18.817Z,83.90
2019-01-24T16:04:48.502Z,83.80
2019-01-24T16:07:18.244Z,83.80
2019-01-24T16:09:51.916Z,83.80
2019-01-24T16:12:29.288Z,83.70
2019-01-24T16:14:59.327Z,83.90
2019-01-24T16:17:29.682Z,83.80
2019-01-24T16:19:59.681Z,83.70
2019-01-24T16:22:29.595Z,83.70
2019-01-24T16:24:59.768Z,83.90
2019-01-24T16:27:30.259Z,83.80
2019-01-24T16:30:00.177Z,83.90
2019-01-24T16:32:31.889Z,83.50
2019-01-24T16:35:09.066Z,83.70
2019-01-24T16:37:41.401Z,83.80
2019-01-24T16:40:12.394Z,83.80
2019-01-24T16:42:42.487Z,84.30
2019-01-24T16:45:15.591Z,84.60
2019-01-24T16:47:46.040Z,84.10
2019-01-24T16:50:17.148Z,84.30
2019-01-24T16:52:47.188Z,84.20
2019-01-24T16:55:17.863Z,84.10
2019-01-24T16:57:53.833Z,84.60
2019-01-24T17:00:29.354Z,84.70
2019-01-24T17:02:59.553Z,84.30
2019-01-24T17:05:30.070Z,84.50
2019-01-24T17:08:01.194Z,84.10
2019-01-24T17:10:31.456Z,84.80
2019-01-24T17:13:01.916Z,84.40
2019-01-24T17:15:31.953Z,84.30
2019-01-24T17:18:01.819Z,84.80
2019-01-24T17:20:31.766Z,84.40
2019-01-24T17:23:01.710Z,84.10
2019-01-24T17:25:31.744Z,84.10
2019-01-24T17:28:04.265Z,83.00
2019-01-24T17:30:35.182Z,83.80
2019-01-24T17:33:05.991Z,83.70
2019-01-24T17:35:36.043Z,84.00
2019-01-24T17:38:06.197Z,83.90
2019-01-24T17:40:36.159Z,83.40
2019-01-24T17:43:06.570Z,83.00
2019-01-24T17:45:36.442Z,84.20
2019-01-24T17:48:08.116Z,84.00
2019-01-24T17:50:38.485Z,84.10
2019-01-24T17:53:08.973Z,84.40
2019-01-24T17:55:41.417Z,84.20
2019-01-24T17:58:17.584Z,83.80
2019-01-24T18:00:52.089Z,84.60
2019-01-24T18:03:22.344Z,83.30
2019-01-24T18:05:52.309Z,83.90
2019-01-24T18:08:22.717Z,84.10
2019-01-24T18:10:52.988Z,82.70
2019-01-24T18:13:23.394Z,84.20
2019-01-24T18:15:56.748Z,84.00
2019-01-24T18:18:27.213Z,84.60
2019-01-24T18:20:57.434Z,82.90
2019-01-24T18:23:27.682Z,83.20
2019-01-24T18:25:57.759Z,83.10
2019-01-24T18:28:28.169Z,83.70
2019-01-24T18:30:58.394Z,83.70
2019-01-24T18:33:28.990Z,84.00
2019-01-24T18:35:58.779Z,84.70
2019-01-24T18:38:38.369Z,82.90
2019-01-24T18:41:08.620Z,84.40
2019-01-24T18:43:36.265Z,84.70
2019-01-24T18:46:07.104Z,84.20
2019-01-24T18:48:39.834Z,86.00
2019-01-24T18:51:11.796Z,85.20
2019-01-24T18:53:42.551Z,84.80
2019-01-24T18:56:12.856Z,84.20
2019-01-24T18:58:43.428Z,82.80
2019-01-24T19:01:14.837Z,83.30
2019-01-24T19:03:53.152Z,82.20
2019-01-24T19:06:23.027Z,82.90
2019-01-24T19:08:53.395Z,84.40
2019-01-24T19:11:23.273Z,83.50
2019-01-24T19:13:54.601Z,83.80
2019-01-24T19:16:25.240Z,83.60
2019-01-24T19:18:55.619Z,83.90
2019-01-24T19:21:25.718Z,83.60
2019-01-24T19:23:55.972Z,83.30
2019-01-24T19:26:26.451Z,83.70
2019-01-24T19:28:56.985Z,85.30
2019-01-24T19:31:27.295Z,84.70
2019-01-24T19:33:57.754Z,83.70
2019-01-24T19:36:28.470Z,84.40
2019-01-24T19:38:59.195Z,85.10
2019-01-24T19:41:32.864Z,83.30
2019-01-24T19:44:04.534Z,83.60
2019-01-24T19:46:34.908Z,83.50
2019-01-24T19:49:08.698Z,85.10
2019-01-24T19:51:48.190Z,84.90
2019-01-24T19:54:18.730Z,83.40
2019-01-24T19:56:49.087Z,84.70
2019-01-24T19:59:19.535Z,85.60
2019-01-24T20:01:49.627Z,84.30
2019-01-24T20:04:20.089Z,84.60
2019-01-24T20:06:51.731Z,84.80
2019-01-24T20:09:21.821Z,84.50
2019-01-24T20:11:52.385Z,85.00
2019-01-24T20:14:22.549Z,85.90
2019-01-24T20:16:52.797Z,84.80
2019-01-24T20:19:23.419Z,84.40
2019-01-24T20:21:53.643Z,84.10
2019-01-24T20:24:23.734Z,82.80
2019-01-24T20:26:53.975Z,84.80
2019-01-24T20:29:24.352Z,86.10
2019-01-24T20:31:54.583Z,84.70
2019-01-24T20:34:25.037Z,84.40
2019-01-24T20:36:56.270Z,84.70
2019-01-24T20:39:26.399Z,85.50
2019-01-24T20:41:56.883Z,85.40
2019-01-24T20:44:27.271Z,85.00
2019-01-24T20:46:57.136Z,85.30
2019-01-24T20:49:27.579Z,84.30
2019-01-24T20:51:57.950Z,85.20
2019-01-24T20:54:28.452Z,84.70
2019-01-24T20:56:58.710Z,84.50
2019-01-24T20:59:29.165Z,85.40
2019-01-24T21:02:05.497Z,85.00
2019-01-24T21:04:35.977Z,85.30
2019-01-24T21:07:06.151Z,85.00
2019-01-24T21:09:36.311Z,85.00
2019-01-24T21:12:06.657Z,85.60
2019-01-24T21:14:36.699Z,84.40
2019-01-24T21:17:06.964Z,85.50
2019-01-24T21:19:37.053Z,85.40
2019-01-24T21:22:07.640Z,85.00
2019-01-24T21:24:43.887Z,84.50
2019-01-24T21:27:14.322Z,85.30
2019-01-24T21:29:45.956Z,84.90
2019-01-24T21:32:16.182Z,84.40
2019-01-24T21:34:46.282Z,85.00
2019-01-24T21:37:16.262Z,84.80
2019-01-24T21:39:47.449Z,85.00
2019-01-24T21:42:17.689Z,85.20
2019-01-24T21:44:47.925Z,85.00
2019-01-24T21:47:18.245Z,84.80
2019-01-24T21:49:48.593Z,85.10
2019-01-24T21:52:24.029Z,85.10
2019-01-24T21:54:54.080Z,85.10
2019-01-24T21:57:24.206Z,85.00
2019-01-24T21:59:54.299Z,85.10
2019-01-24T22:02:24.617Z,84.90
2019-01-24T22:04:55.043Z,84.60
2019-01-24T22:11:06.738Z,84.70
2019-01-24T22:13:37.796Z,84.90
2019-01-24T22:16:08.205Z,84.80
2019-01-24T22:18:38.304Z,84.90
2019-01-24T22:21:08.495Z,85.00
2019-01-24T22:23:38.693Z,84.80
2019-01-24T22:26:08.869Z,84.80
2019-01-24T22:28:39.090Z,84.90
2019-01-24T22:31:09.498Z,84.80
2019-01-24T22:33:45.644Z,84.90
2019-01-24T22:36:16.050Z,84.70
2019-01-24T22:38:46.163Z,84.70
2019-01-24T22:41:16.436Z,85.00
2019-01-24T22:43:46.609Z,84.60
2019-01-24T22:46:16.866Z,84.70
2019-01-24T22:48:51.268Z,83.70
2019-01-24T22:51:21.647Z,84.20
2019-01-24T22:53:51.651Z,85.00
2019-01-24T22:56:21.943Z,85.10
2019-01-24T22:58:52.157Z,84.70
2019-01-24T23:01:45.275Z,83.90
2019-01-24T23:04:24.614Z,83.70
2019-01-24T23:06:54.797Z,84.70
2019-01-24T23:09:24.990Z,84.00
2019-01-24T23:11:55.107Z,84.80
2019-01-24T23:14:25.501Z,85.20
2019-01-24T23:16:55.574Z,84.20
2019-01-24T23:19:25.905Z,85.00
2019-01-24T23:21:56.045Z,84.70
2019-01-24T23:24:26.437Z,84.90
2019-01-24T23:26:56.856Z,84.20
2019-01-24T23:29:27.255Z,84.30
2019-01-24T23:32:16.156Z,84.60
2019-01-24T23:34:46.250Z,84.60
2019-01-24T23:37:19.824Z,84.70
2019-01-24T23:39:52.396Z,84.40
2019-01-24T23:42:22.052Z,84.70
2019-01-24T23:44:52.233Z,84.50
2019-01-24T23:47:22.389Z,84.60
2019-01-24T23:49:52.110Z,84.40
2019-01-24T23:52:22.232Z,84.40
2019-01-24T23:54:52.490Z,84.50
2019-01-24T23:57:24.005Z,83.70
2019-01-24T23:59:53.690Z,84.20
